Time;durP1;ratioP1;P1;durP2;ratioP2;P2;SDS_P1;SDS_P2;PMS_P1;PMS_P2;Temp;Humidity;BMP_temperature;BMP_pressure;BME280_temperature;BME280_humidity;BME280_pressure;Samples;Min_cycle;Max_cycle;Signal;HPM_P1;HPM_P2
2022/07/29 00:01:06;;;;;;;4.90;2.65;;;18.90;68.60;;;;;;5010625;28;20117;-66
2022/07/29 00:03:31;;;;;;;6.50;3.00;;;18.90;68.70;;;;;;5014046;28;20034;-66
2022/07/29 00:05:57;;;;;;;5.20;2.97;;;18.80;68.90;;;;;;5014819;28;20058;-66
2022/07/29 00:08:23;;;;;;;8.63;3.08;;;18.80;69.10;;;;;;5013768;28;20056;-65
2022/07/29 00:10:48;;;;;;;6.38;3.42;;;18.80;69.20;;;;;;5013677;28;20030;-65
2022/07/29 00:13:14;;;;;;;6.88;2.92;;;18.80;69.40;;;;;;5013370;28;20026;-65
2022/07/29 00:15:39;;;;;;;7.63;4.15;;;18.70;69.60;;;;;;5013131;28;20105;-65
2022/07/29 00:18:05;;;;;;;8.70;3.30;;;18.70;69.80;;;;;;5012675;28;20473;-64
2022/07/29 00:20:31;;;;;;;4.70;3.28;;;18.70;70.00;;;;;;5013207;28;20070;-65
2022/07/29 00:22:56;;;;;;;5.28;3.03;;;18.60;70.20;;;;;;5011504;28;20026;-65
2022/07/29 00:25:22;;;;;;;7.72;2.90;;;18.60;70.40;;;;;;5013138;28;20030;-65
2022/07/29 00:27:47;;;;;;;6.97;3.75;;;18.60;70.70;;;;;;5012950;28;20022;-65
2022/07/29 00:30:13;;;;;;;7.45;3.30;;;18.60;70.70;;;;;;5013530;28;20500;-65
2022/07/29 00:32:39;;;;;;;4.97;3.17;;;18.60;70.90;;;;;;5013358;28;20056;-65
2022/07/29 00:37:50;;;;;;;5.68;3.30;;;18.50;71.20;;;;;;5012460;28;20036;-65
2022/07/29 00:40:16;;;;;;;5.25;3.40;;;18.50;71.80;;;;;;5012782;28;20468;-65
2022/07/29 00:42:46;;;;;;;5.82;3.47;;;18.50;71.70;;;;;;4991922;28;20057;-66
2022/07/29 00:45:13;;;;;;;5.20;3.15;;;18.40;71.90;;;;;;5011921;28;20033;-66
2022/07/29 00:47:39;;;;;;;5.75;3.17;;;18.40;72.00;;;;;;5012080;28;20030;-65
2022/07/29 00:50:06;;;;;;;7.38;3.35;;;18.40;72.30;;;;;;5013187;28;20473;-65
2022/07/29 00:52:33;;;;;;;8.10;3.20;;;18.40;72.50;;;;;;5012312;28;20030;-66
2022/07/29 00:54:59;;;;;;;7.00;3.30;;;18.30;72.60;;;;;;5013809;28;20252;-65
2022/07/29 00:57:24;;;;;;;4.63;3.67;;;18.30;72.70;;;;;;5011852;28;20029;-65
2022/07/29 00:59:50;;;;;;;4.80;3.08;;;18.30;72.90;;;;;;5013386;28;20029;-66
2022/07/29 01:02:15;;;;;;;6.10;3.40;;;18.30;73.20;;;;;;5011216;28;20062;-66
2022/07/29 01:04:41;;;;;;;6.32;3.33;;;18.30;73.50;;;;;;5012746;28;20041;-66
2022/07/29 01:07:07;;;;;;;7.90;3.63;;;18.20;73.50;;;;;;5012485;28;20032;-66
2022/07/29 01:09:34;;;;;;;6.80;3.70;;;18.20;73.80;;;;;;5010119;28;20046;-66
2022/07/29 01:12:01;;;;;;;5.78;3.30;;;18.20;74.00;;;;;;5011901;28;20030;-65
2022/07/29 01:14:28;;;;;;;7.53;3.83;;;18.20;74.20;;;;;;5012545;28;20034;-66
2022/07/29 01:17:05;;;;;;;7.28;3.50;;;18.10;74.30;;;;;;5012911;28;20470;-66
2022/07/29 01:19:50;;;;;;;8.52;3.30;;;18.10;74.40;;;;;;5011535;28;20080;-66
2022/07/29 01:22:26;;;;;;;8.73;3.53;;;18.10;74.50;;;;;;5011970;28;20958;-66
2022/07/29 01:25:29;;;;;;;7.45;3.67;;;18.10;74.70;;;;;;5012751;28;20026;-66
2022/07/29 01:28:33;;;;;;;8.95;3.20;;;18.10;74.60;;;;;;5011493;28;20116;-65
2022/07/29 01:31:02;;;;;;;5.57;3.08;;;18.10;75.00;;;;;;5012637;28;20157;-66
2022/07/29 01:36:17;;;;;;;8.52;3.22;;;18.10;75.10;;;;;;5012843;28;20084;-65
2022/07/29 01:38:49;;;;;;;6.35;3.25;;;18.00;75.40;;;;;;5011435;28;20085;-65
2022/07/29 01:41:19;;;;;;;4.93;2.88;;;18.00;75.50;;;;;;5011930;28;20066;-65
2022/07/29 01:43:54;;;;;;;5.47;3.33;;;18.00;75.60;;;;;;5011026;28;20128;-65
2022/07/29 01:46:27;;;;;;;6.70;2.80;;;18.00;75.70;;;;;;5001974;28;20041;-65
2022/07/29 01:48:57;;;;;;;8.25;3.28;;;18.00;75.80;;;;;;5008612;28;20482;-65
2022/07/29 01:51:31;;;;;;;4.38;2.97;;;17.90;75.90;;;;;;5012392;28;20026;-64
2022/07/29 01:54:10;;;;;;;;;;;18.00;76.10;;;;;;5012010;28;20560;-65
2022/07/29 01:56:37;;;;;;;6.68;3.13;;;18.00;75.70;;;;;;5013451;28;19912;-64
2022/07/29 01:59:06;;;;;;;5.75;3.00;;;17.90;76.00;;;;;;5010379;28;20366;-64
2022/07/29 02:01:34;;;;;;;6.45;3.20;;;17.90;76.30;;;;;;5010037;28;20052;-65
2022/07/29 02:04:04;;;;;;;6.00;3.28;;;17.80;76.50;;;;;;5009187;28;20038;-65
2022/07/29 02:06:33;;;;;;;6.40;2.88;;;17.80;76.60;;;;;;4992618;28;20409;-65
2022/07/29 02:09:00;;;;;;;5.25;3.42;;;17.80;76.80;;;;;;4991407;28;20026;-66
2022/07/29 02:11:25;;;;;;;5.32;2.95;;;17.80;76.80;;;;;;4991162;28;20022;-65
2022/07/29 02:13:54;;;;;;;4.30;2.97;;;17.80;76.90;;;;;;4991201;28;20039;-66
2022/07/29 02:16:21;;;;;;;6.68;3.17;;;17.80;77.10;;;;;;4991314;28;20018;-66
2022/07/29 02:18:52;;;;;;;3.55;2.67;;;17.70;77.30;;;;;;4990913;28;20050;-65
2022/07/29 02:21:23;;;;;;;7.88;3.20;;;17.80;77.30;;;;;;4991981;28;20026;-65
2022/07/29 02:23:50;;;;;;;6.30;3.40;;;17.70;77.40;;;;;;4991872;28;20106;-66
2022/07/29 02:26:17;;;;;;;4.88;2.65;;;17.70;77.40;;;;;;4990275;28;20083;-66
2022/07/29 02:28:44;;;;;;;5.32;3.08;;;17.80;77.50;;;;;;4991539;28;20034;-66
2022/07/29 02:31:11;;;;;;;8.43;3.70;;;17.70;77.60;;;;;;4991784;28;20035;-66
2022/07/29 02:33:38;;;;;;;6.38;3.20;;;17.70;77.70;;;;;;4990681;28;20026;-66
2022/07/29 02:36:04;;;;;;;6.95;2.90;;;17.70;77.70;;;;;;4992077;28;20113;-66
2022/07/29 02:41:27;;;;;;;8.90;3.03;;;17.70;77.90;;;;;;4991503;28;20482;-66
2022/07/29 02:43:56;;;;;;;5.88;3.03;;;17.70;77.90;;;;;;4988441;28;20053;-66
2022/07/29 02:46:34;;;;;;;5.72;3.25;;;17.70;78.00;;;;;;4992123;28;20031;-65
2022/07/29 02:49:13;;;;;;;6.18;3.10;;;17.70;78.00;;;;;;4989077;28;20080;-65
2022/07/29 02:52:00;;;;;;;6.70;2.78;;;17.70;78.10;;;;;;4991118;28;20042;-65
2022/07/29 02:54:44;;;;;;;4.55;2.95;;;17.70;78.00;;;;;;4991624;28;20720;-65
2022/07/29 02:57:26;;;;;;;4.63;2.90;;;17.70;78.30;;;;;;4990830;28;20022;-65
2022/07/29 02:59:54;;;;;;;5.53;2.67;;;17.70;78.30;;;;;;4991950;28;20204;-65
2022/07/29 03:02:21;;;;;;;7.03;2.90;;;17.70;78.20;;;;;;4991021;28;20081;-66
2022/07/29 03:04:48;;;;;;;4.95;3.20;;;17.70;78.50;;;;;;4998334;28;20103;-65
2022/07/29 03:07:18;;;;;;;5.35;3.17;;;17.70;78.50;;;;;;5009820;28;20065;-65
2022/07/29 03:09:45;;;;;;;7.55;2.85;;;17.70;78.50;;;;;;5010475;28;20041;-66
2022/07/29 03:12:11;;;;;;;5.45;3.10;;;17.70;78.60;;;;;;5010763;28;22325;-65
2022/07/29 03:14:37;;;;;;;4.88;2.88;;;17.70;78.60;;;;;;5010643;28;20030;-65
2022/07/29 03:17:04;;;;;;;5.47;3.17;;;17.70;78.80;;;;;;5011091;28;20109;-65
2022/07/29 03:19:30;;;;;;;6.57;3.17;;;17.70;78.70;;;;;;5010565;28;20072;-66
2022/07/29 03:21:57;;;;;;;5.68;3.63;;;17.70;78.80;;;;;;5010312;28;20026;-65
2022/07/29 03:24:32;;;;;;;5.60;2.72;;;17.70;78.80;;;;;;5009940;28;20034;-65
2022/07/29 03:26:58;;;;;;;5.07;3.03;;;17.70;78.90;;;;;;4997729;28;20030;-65
2022/07/29 03:29:25;;;;;;;19.65;3.38;;;17.70;78.80;;;;;;5014277;28;20040;-65
2022/07/29 03:31:50;;;;;;;5.95;2.67;;;17.70;78.90;;;;;;5015305;28;20044;-65
2022/07/29 03:34:16;;;;;;;6.82;2.65;;;17.70;78.90;;;;;;5015015;28;20034;-65
2022/07/29 03:36:41;;;;;;;7.35;2.92;;;17.70;79.10;;;;;;5014641;28;21126;-65
2022/07/29 03:39:08;;;;;;;6.65;3.00;;;17.70;79.30;;;;;;5012914;28;20121;-65
2022/07/29 03:41:36;;;;;;;5.55;2.70;;;17.60;79.10;;;;;;4998642;28;20482;-65
2022/07/29 03:44:03;;;;;;;4.38;2.97;;;17.60;79.20;;;;;;5012449;28;20599;-66
2022/07/29 03:46:30;;;;;;;6.10;3.28;;;17.60;79.20;;;;;;5014518;28;20034;-65
2022/07/29 03:49:00;;;;;;;6.07;3.10;;;17.60;79.40;;;;;;5013414;28;20560;-65
2022/07/29 03:51:26;;;;;;;5.30;3.00;;;17.60;79.40;;;;;;5014772;28;20436;-65
2022/07/29 03:53:52;;;;;;;7.93;3.45;;;17.60;79.40;;;;;;5011887;28;20040;-65
2022/07/29 03:56:21;;;;;;;6.28;3.60;;;17.60;79.60;;;;;;5014688;28;20033;-65
2022/07/29 03:58:49;;;;;;;5.45;2.60;;;17.50;79.50;;;;;;5013435;28;20030;-65
2022/07/29 04:01:17;;;;;;;6.18;2.60;;;17.60;79.60;;;;;;5014424;28;20038;-66
2022/07/29 04:03:45;;;;;;;4.57;2.90;;;17.60;79.70;;;;;;5011613;28;20545;-65
2022/07/29 04:06:11;;;;;;;8.18;3.00;;;17.60;79.70;;;;;;5013747;28;20062;-64
2022/07/29 04:08:37;;;;;;;4.75;2.45;;;17.60;79.80;;;;;;5013556;28;20041;-65
2022/07/29 04:11:03;;;;;;;7.72;3.10;;;17.60;80.40;;;;;;5011583;28;20116;-66
2022/07/29 04:13:29;;;;;;;6.55;2.85;;;17.60;80.00;;;;;;5013446;28;20033;-65
2022/07/29 04:15:55;;;;;;;5.00;2.78;;;17.60;80.00;;;;;;5013160;28;20388;-65
2022/07/29 04:18:20;;;;;;;9.35;3.10;;;17.60;80.10;;;;;;5012454;28;20034;-65
2022/07/29 04:20:46;;;;;;;7.50;3.13;;;17.60;80.10;;;;;;5013520;28;20061;-65
2022/07/29 04:23:11;;;;;;;8.50;3.38;;;17.60;80.20;;;;;;5013409;28;20037;-70
2022/07/29 04:25:38;;;;;;;5.78;2.85;;;17.70;80.40;;;;;;5012498;28;20030;-66
2022/07/29 04:28:04;;;;;;;7.05;2.90;;;17.70;80.40;;;;;;5012768;28;20034;-66
2022/07/29 04:30:31;;;;;;;6.15;2.97;;;17.70;80.30;;;;;;5013425;28;20045;-65
2022/07/29 04:32:56;;;;;;;6.70;3.17;;;17.70;80.40;;;;;;5013386;28;20034;-65
2022/07/29 04:35:22;;;;;;;4.70;2.72;;;17.70;80.30;;;;;;5011681;28;20099;-65
2022/07/29 04:37:48;;;;;;;4.63;2.90;;;17.70;80.50;;;;;;5011643;28;20026;-65
2022/07/29 04:40:14;;;;;;;8.05;3.65;;;17.70;80.50;;;;;;5013241;28;20026;-65
2022/07/29 04:42:39;;;;;;;5.50;3.10;;;17.80;80.60;;;;;;5007534;28;20638;-65
2022/07/29 04:45:06;;;;;;;6.70;3.33;;;17.80;80.60;;;;;;5012270;28;20041;-65
2022/07/29 04:47:31;;;;;;;8.07;3.03;;;17.80;80.50;;;;;;5012529;28;20056;-65
2022/07/29 04:49:57;;;;;;;4.78;2.78;;;17.80;80.60;;;;;;5013091;28;20042;-65
2022/07/29 04:52:22;;;;;;;6.68;2.90;;;17.90;80.60;;;;;;5011089;28;20030;-65
2022/07/29 04:54:48;;;;;;;5.25;3.00;;;17.90;80.30;;;;;;5013243;28;20018;-67
2022/07/29 04:57:14;;;;;;;6.78;3.00;;;17.90;80.30;;;;;;5012921;28;20036;-68
2022/07/29 04:59:39;;;;;;;6.88;3.67;;;17.90;80.40;;;;;;5012617;28;20041;-67
2022/07/29 05:02:05;;;;;;;6.38;2.95;;;17.90;80.30;;;;;;5012517;28;20038;-65
2022/07/29 05:04:31;;;;;;;5.35;3.45;;;17.90;80.40;;;;;;5012482;28;20485;-65
2022/07/29 05:06:56;;;;;;;6.43;3.08;;;18.00;80.70;;;;;;5011591;28;20539;-67
2022/07/29 05:09:22;;;;;;;5.65;2.80;;;17.90;80.40;;;;;;5010579;28;20033;-68
2022/07/29 05:11:48;;;;;;;3.90;2.60;;;18.00;80.40;;;;;;5011932;28;20025;-68
2022/07/29 05:14:14;;;;;;;4.68;2.47;;;18.00;80.60;;;;;;5027674;28;20026;-68
2022/07/29 05:16:40;;;;;;;5.07;3.17;;;18.10;80.50;;;;;;5011837;28;20030;-68
2022/07/29 05:19:07;;;;;;;7.22;2.60;;;18.20;80.40;;;;;;5012515;28;20038;-67
2022/07/29 05:21:32;;;;;;;6.43;2.95;;;18.20;80.50;;;;;;5012299;28;20083;-67
2022/07/29 05:23:58;;;;;;;5.80;3.15;;;18.30;80.20;;;;;;5009362;28;20022;-67
2022/07/29 05:26:23;;;;;;;5.30;2.80;;;18.40;80.00;;;;;;5012461;28;20037;-67
2022/07/29 05:28:49;;;;;;;4.95;3.40;;;18.40;79.70;;;;;;5011174;28;20064;-67
2022/07/29 05:31:15;;;;;;;8.50;3.00;;;18.50;79.70;;;;;;5011367;28;20599;-67
2022/07/29 05:33:41;;;;;;;5.18;2.67;;;18.50;79.70;;;;;;5011960;28;20120;-67
2022/07/29 05:36:07;;;;;;;7.43;2.88;;;18.60;79.50;;;;;;5011466;28;20136;-67
2022/07/29 05:38:34;;;;;;;6.97;3.22;;;18.60;79.30;;;;;;5012236;28;20151;-68
2022/07/29 05:40:59;;;;;;;8.77;3.22;;;18.60;79.20;;;;;;5010899;28;20374;-68
2022/07/29 05:43:27;;;;;;;8.35;3.10;;;18.60;79.10;;;;;;5010805;28;20037;-68
2022/07/29 05:45:52;;;;;;;5.35;2.92;;;18.60;78.90;;;;;;5011410;28;20033;-68
2022/07/29 05:48:18;;;;;;;7.13;3.00;;;18.60;78.80;;;;;;5011131;28;20022;-68
2022/07/29 05:50:43;;;;;;;5.45;3.38;;;18.60;79.00;;;;;;5011381;28;20038;-67
2022/07/29 05:53:09;;;;;;;5.47;3.13;;;18.70;79.00;;;;;;5011990;28;20038;-67
2022/07/29 05:55:34;;;;;;;4.75;2.95;;;18.70;79.10;;;;;;5015258;28;20488;-67
2022/07/29 05:58:00;;;;;;;6.68;3.00;;;18.80;79.10;;;;;;5010256;28;20026;-67
2022/07/29 06:00:25;;;;;;;5.25;3.38;;;18.80;78.80;;;;;;5004428;28;20034;-67
2022/07/29 06:02:51;;;;;;;5.53;3.05;;;18.80;78.70;;;;;;5011045;28;20112;-67
2022/07/29 06:05:17;;;;;;;5.30;2.95;;;18.80;78.50;;;;;;5008967;28;20072;-68
2022/07/29 06:07:42;;;;;;;6.72;2.83;;;18.90;78.70;;;;;;5007927;28;20551;-68
2022/07/29 06:10:09;;;;;;;6.18;3.60;;;19.00;78.50;;;;;;5011941;28;20038;-68
2022/07/29 06:12:34;;;;;;;7.15;3.10;;;19.20;78.60;;;;;;5011575;28;20080;-68
2022/07/29 06:15:00;;;;;;;5.82;2.85;;;19.30;78.40;;;;;;5011699;28;20427;-68
2022/07/29 06:17:26;;;;;;;6.07;2.50;;;19.40;78.60;;;;;;5009894;28;20184;-67
2022/07/29 06:19:52;;;;;;;4.85;2.92;;;19.50;78.00;;;;;;5010038;28;20038;-70
2022/07/29 06:22:18;;;;;;;4.75;2.88;;;19.50;77.50;;;;;;5009053;28;20548;-68
2022/07/29 06:24:43;;;;;;;5.30;2.88;;;19.60;77.40;;;;;;5005992;28;20381;-68
2022/07/29 06:27:10;;;;;;;5.20;2.70;;;19.70;77.20;;;;;;5008416;28;20108;-68
2022/07/29 06:29:36;;;;;;;5.40;2.90;;;19.80;77.00;;;;;;5008913;28;20504;-68
2022/07/29 06:32:02;;;;;;;7.18;2.70;;;19.90;76.50;;;;;;5006330;28;20022;-68
2022/07/29 06:34:28;;;;;;;11.30;4.25;;;19.90;76.40;;;;;;5009506;28;20041;-67
2022/07/29 06:36:53;;;;;;;6.80;2.80;;;20.10;76.50;;;;;;5010111;28;20018;-68
2022/07/29 06:39:19;;;;;;;4.68;3.00;;;20.10;76.40;;;;;;5011412;28;20045;-69
2022/07/29 06:41:50;;;;;;;8.25;3.00;;;20.20;76.20;;;;;;5014170;28;20044;-69
2022/07/29 06:44:16;;;;;;;6.78;3.22;;;20.30;76.10;;;;;;5009263;28;20033;-69
2022/07/29 06:46:41;;;;;;;7.57;3.30;;;20.40;76.00;;;;;;5010655;28;20076;-70
2022/07/29 06:49:07;;;;;;;8.00;2.67;;;20.40;76.50;;;;;;5007662;28;20058;-70
2022/07/29 06:51:33;;;;;;;6.40;2.72;;;20.50;76.20;;;;;;5010393;28;20026;-70
2022/07/29 06:54:00;;;;;;;8.98;2.90;;;20.60;76.10;;;;;;5010863;28;20385;-70
2022/07/29 06:56:26;;;;;;;4.45;2.60;;;20.60;76.80;;;;;;5011062;28;20038;-69
2022/07/29 06:58:51;;;;;;;4.35;2.65;;;20.70;75.80;;;;;;5008399;28;20026;-69
2022/07/29 07:01:17;;;;;;;8.27;3.42;;;20.80;75.60;;;;;;5012769;28;20029;-69
2022/07/29 07:03:43;;;;;;;5.43;2.95;;;20.90;75.40;;;;;;5014419;28;20026;-70
2022/07/29 07:06:08;;;;;;;5.63;2.58;;;20.90;75.30;;;;;;5015200;28;20408;-71
2022/07/29 07:08:34;;;;;;;5.40;2.40;;;21.00;75.80;;;;;;5014118;28;20125;-70
2022/07/29 07:10:59;;;;;;;5.80;2.72;;;21.00;75.10;;;;;;5014183;28;20038;-71
2022/07/29 07:13:26;;;;;;;6.20;2.53;;;21.10;74.40;;;;;;5013677;28;20048;-71
2022/07/29 07:15:52;;;;;;;6.00;2.83;;;21.10;74.80;;;;;;5013865;28;20057;-71
2022/07/29 07:18:18;;;;;;;7.43;2.88;;;21.20;74.20;;;;;;5015804;28;20053;-68
2022/07/29 07:20:44;;;;;;;5.90;2.85;;;21.30;73.90;;;;;;5013882;28;20041;-69
2022/07/29 07:23:10;;;;;;;6.10;2.80;;;21.40;73.70;;;;;;5011288;28;20026;-69
2022/07/29 07:25:35;;;;;;;4.50;2.92;;;21.50;73.20;;;;;;5013247;28;20033;-69
2022/07/29 07:28:02;;;;;;;7.18;2.80;;;21.50;73.00;;;;;;5012821;28;20504;-67
2022/07/29 07:30:27;;;;;;;4.50;2.40;;;21.60;72.50;;;;;;5014807;28;20038;-67
2022/07/29 07:32:53;;;;;;;6.35;2.78;;;21.60;72.40;;;;;;5012927;28;20025;-69
2022/07/29 07:35:19;;;;;;;4.50;2.72;;;21.60;72.00;;;;;;5015110;28;20401;-66
2022/07/29 07:37:45;;;;;;;15.48;3.50;;;21.60;72.10;;;;;;5013710;28;20018;-67
2022/07/29 07:40:11;;;;;;;4.90;2.40;;;21.60;72.90;;;;;;5014519;28;20438;-68
2022/07/29 07:42:38;;;;;;;6.00;2.42;;;21.60;72.30;;;;;;5017914;28;20049;-68
2022/07/29 07:45:05;;;;;;;6.80;2.28;;;21.70;72.30;;;;;;5013914;28;20034;-67
2022/07/29 07:47:31;;;;;;;5.70;2.85;;;21.70;72.20;;;;;;5013488;28;20073;-67
2022/07/29 07:49:57;;;;;;;7.47;3.10;;;21.60;71.90;;;;;;5014412;28;20041;-67
2022/07/29 07:52:22;;;;;;;4.70;2.88;;;21.70;71.60;;;;;;5012860;28;20018;-67
2022/07/29 07:54:48;;;;;;;5.50;2.75;;;21.80;71.80;;;;;;5014672;28;20084;-67
2022/07/29 07:57:14;;;;;;;5.88;2.55;;;21.80;71.80;;;;;;5012540;28;20022;-67
2022/07/29 07:59:40;;;;;;;7.47;2.80;;;21.90;71.90;;;;;;5014110;28;20095;-67
2022/07/29 08:02:06;;;;;;;4.15;2.50;;;22.00;72.10;;;;;;5013181;28;20072;-67
2022/07/29 08:04:32;;;;;;;6.20;2.38;;;22.00;71.20;;;;;;5013663;28;20564;-67
2022/07/29 08:06:58;;;;;;;6.82;2.90;;;22.10;71.10;;;;;;5013291;28;20117;-68
2022/07/29 08:09:26;;;;;;;3.10;2.08;;;22.20;70.80;;;;;;5014067;28;20101;-67
2022/07/29 08:11:52;;;;;;;3.22;2.15;;;22.20;70.30;;;;;;5011779;28;20108;-67
2022/07/29 08:14:17;;;;;;;6.47;2.45;;;22.30;70.40;;;;;;5014232;28;20113;-67
2022/07/29 08:16:43;;;;;;;6.07;2.13;;;22.40;70.10;;;;;;5012225;28;20109;-68
2022/07/29 08:19:09;;;;;;;5.95;2.40;;;22.40;69.70;;;;;;5012438;28;20033;-67
2022/07/29 08:21:35;;;;;;;5.60;2.28;;;22.50;69.40;;;;;;5011436;28;20029;-68
2022/07/29 08:26:45;;;;;;;4.15;2.53;;;22.60;68.90;;;;;;5012132;28;20033;-68
2022/07/29 08:29:11;;;;;;;6.22;2.55;;;22.70;68.60;;;;;;5011484;28;20038;-67
2022/07/29 08:31:38;;;;;;;4.40;2.53;;;22.80;68.10;;;;;;5002573;28;20377;-68
2022/07/29 08:34:04;;;;;;;6.10;2.97;;;22.90;68.70;;;;;;5012049;28;20121;-67
2022/07/29 08:36:31;;;;;;;4.65;2.60;;;22.90;67.80;;;;;;5012637;28;20028;-68
2022/07/29 08:38:57;;;;;;;5.78;2.22;;;23.00;68.30;;;;;;5012689;28;20476;-68
2022/07/29 08:41:23;;;;;;;5.38;2.00;;;23.10;68.10;;;;;;5013169;28;20034;-67
2022/07/29 08:43:51;;;;;;;5.05;2.20;;;23.10;67.90;;;;;;5014241;28;20135;-68
2022/07/29 08:46:16;;;;;;;7.57;2.75;;;23.20;67.20;;;;;;5012669;28;20036;-67
2022/07/29 08:48:43;;;;;;;4.20;2.38;;;23.20;67.30;;;;;;5009851;28;20022;-67
2022/07/29 08:51:14;;;;;;;6.18;2.78;;;23.30;66.70;;;;;;5013360;28;20073;-67
2022/07/29 08:53:42;;;;;;;6.47;2.25;;;23.30;66.70;;;;;;5009907;28;20037;-67
2022/07/29 08:56:11;;;;;;;4.18;2.00;;;23.40;66.60;;;;;;5013674;28;20033;-67
2022/07/29 08:58:37;;;;;;;10.93;2.42;;;23.50;66.00;;;;;;5011233;28;20394;-64
2022/07/29 09:01:03;;;;;;;5.85;2.63;;;23.50;65.40;;;;;;5011725;28;20022;-65
2022/07/29 09:03:34;;;;;;;4.38;2.17;;;23.60;65.90;;;;;;5010464;28;20069;-63
2022/07/29 09:06:01;;;;;;;4.93;2.60;;;23.60;65.60;;;;;;5010164;28;20049;-63
2022/07/29 09:08:27;;;;;;;2.90;1.88;;;23.70;64.60;;;;;;5009329;28;20054;-65
2022/07/29 09:10:55;;;;;;;5.28;2.55;;;23.80;64.70;;;;;;5012701;28;20363;-65
2022/07/29 09:13:21;;;;;;;3.25;1.98;;;23.80;64.20;;;;;;5011292;28;20026;-65
2022/07/29 09:15:46;;;;;;;3.65;2.22;;;23.90;64.00;;;;;;5012973;28;20092;-65
2022/07/29 09:18:32;;;;;;;7.32;2.50;;;24.00;63.90;;;;;;5011601;28;20036;-65
2022/07/29 09:24:02;;;;;;;3.25;2.10;;;24.20;63.20;;;;;;5008831;28;20025;-65
2022/07/29 09:26:29;;;;;;;4.35;1.92;;;24.30;63.20;;;;;;5010165;28;20097;-65
2022/07/29 09:28:54;;;;;;;3.85;1.98;;;24.40;63.20;;;;;;5014280;28;20030;-65
2022/07/29 09:31:34;;;;;;;3.60;1.95;;;24.50;62.90;;;;;;5010237;28;20040;-65
2022/07/29 09:34:00;;;;;;;4.05;2.13;;;24.60;62.70;;;;;;5010054;28;20117;-65
2022/07/29 09:36:26;;;;;;;5.10;2.15;;;24.60;62.20;;;;;;5012893;28;20041;-66
2022/07/29 09:39:02;;;;;;;5.45;2.22;;;24.70;61.70;;;;;;5010500;28;20033;-67
2022/07/29 09:41:29;;;;;;;4.40;2.20;;;24.70;61.00;;;;;;5011124;28;20022;-66
2022/07/29 09:43:59;;;;;;;4.43;2.30;;;24.80;60.60;;;;;;5011711;28;20041;-68
2022/07/29 09:46:25;;;;;;;5.80;2.30;;;24.90;60.90;;;;;;5009590;28;20025;-66
2022/07/29 09:49:10;;;;;;;5.20;2.25;;;24.90;60.30;;;;;;5010876;28;20045;-66
2022/07/29 09:51:36;;;;;;;3.20;1.88;;;25.00;60.40;;;;;;5009965;28;20029;-67
2022/07/29 09:54:25;;;;;;;3.10;2.03;;;25.10;59.90;;;;;;5009685;28;20079;-66
2022/07/29 09:56:51;;;;;;;4.15;1.92;;;25.20;59.70;;;;;;5015160;28;20034;-66
2022/07/29 09:59:17;;;;;;;3.67;1.75;;;25.30;58.80;;;;;;5012880;28;20033;-66
2022/07/29 10:01:42;;;;;;;5.22;2.42;;;25.40;59.30;;;;;;5014677;28;20369;-66
2022/07/29 10:04:08;;;;;;;2.70;2.22;;;25.50;59.20;;;;;;5011773;28;20087;-66
2022/07/29 10:06:34;;;;;;;3.50;2.08;;;25.70;57.80;;;;;;5011496;28;20473;-66
2022/07/29 10:09:10;;;;;;;3.85;1.67;;;25.80;58.00;;;;;;5009941;28;20034;-66
2022/07/29 10:11:36;;;;;;;4.30;1.90;;;25.90;57.10;;;;;;5010460;28;20036;-66
2022/07/29 10:14:04;;;;;;;5.15;1.98;;;26.10;56.20;;;;;;5009029;28;20068;-66
2022/07/29 10:16:32;;;;;;;3.67;1.70;;;26.10;55.50;;;;;;5003905;28;20432;-66
2022/07/29 10:18:59;;;;;;;3.72;2.15;;;26.20;55.20;;;;;;5007988;28;20088;-66
2022/07/29 10:21:25;;;;;;;5.10;1.55;;;26.20;54.80;;;;;;5005355;28;20528;-66
2022/07/29 10:23:52;;;;;;;4.20;1.83;;;26.30;54.50;;;;;;5008650;28;20044;-66
2022/07/29 10:26:19;;;;;;;2.50;1.80;;;26.40;54.40;;;;;;5009362;28;20029;-66
2022/07/29 10:28:45;;;;;;;5.25;1.90;;;26.50;54.60;;;;;;5009477;28;20026;-66
2022/07/29 10:31:22;;;;;;;5.05;1.80;;;26.50;53.90;;;;;;5011256;28;20048;-65
2022/07/29 10:34:14;;;;;;;6.25;2.20;;;26.50;53.50;;;;;;5006738;28;20022;-66
2022/07/29 10:37:00;;;;;;;7.43;1.95;;;26.40;53.20;;;;;;5002851;28;20029;-66
2022/07/29 10:39:51;;;;;;;3.17;1.67;;;26.40;53.10;;;;;;5009550;28;20096;-66
2022/07/29 10:42:25;;;;;;;5.30;2.20;;;26.40;53.30;;;;;;5002348;28;20030;-66
2022/07/29 10:44:53;;;;;;;5.40;1.90;;;26.40;53.30;;;;;;5009624;28;20109;-66
2022/07/29 10:47:29;;;;;;;4.30;2.03;;;26.50;53.90;;;;;;5009915;28;20040;-66
2022/07/29 10:50:05;;;;;;;4.00;1.73;;;26.60;53.70;;;;;;5006339;28;20038;-66
2022/07/29 10:52:49;;;;;;;2.95;1.95;;;26.70;53.50;;;;;;5009761;28;20036;-66
2022/07/29 10:55:31;;;;;;;4.35;1.83;;;26.90;53.60;;;;;;5009366;28;20022;-66
2022/07/29 10:58:20;;;;;;;4.35;1.90;;;27.00;53.60;;;;;;5011330;28;20037;-66
2022/07/29 11:00:48;;;;;;;3.40;2.00;;;27.10;52.90;;;;;;5007113;28;20026;-66
2022/07/29 11:03:44;;;;;;;3.60;1.80;;;27.20;52.60;;;;;;5010085;28;20033;-65
2022/07/29 11:06:10;;;;;;;6.05;1.95;;;27.30;52.50;;;;;;5008600;28;20054;-64
2022/07/29 11:08:35;;;;;;;3.22;1.60;;;27.30;52.40;;;;;;5011072;28;20535;-65
2022/07/29 11:11:19;;;;;;;3.58;1.75;;;27.30;51.80;;;;;;4999708;28;20034;-65
2022/07/29 11:13:47;;;;;;;3.85;2.20;;;27.30;52.00;;;;;;5005729;28;20088;-65
2022/07/29 11:16:14;;;;;;;2.72;2.03;;;27.30;52.30;;;;;;5009634;28;20038;-65
2022/07/29 11:19:11;;;;;;;4.13;2.17;;;27.30;51.80;;;;;;5010752;28;20239;-65
2022/07/29 11:21:39;;;;;;;4.45;1.90;;;27.20;52.20;;;;;;5025389;28;20022;-65
2022/07/29 11:24:12;;;;;;;3.17;1.80;;;27.20;52.50;;;;;;5011087;28;20049;-65
2022/07/29 11:26:38;;;;;;;3.97;1.87;;;27.20;52.00;;;;;;5010971;28;20061;-65
2022/07/29 11:29:20;;;;;;;4.78;2.30;;;27.20;51.60;;;;;;5010145;28;20496;-67
2022/07/29 11:31:51;;;;;;;3.72;2.08;;;27.30;51.70;;;;;;5011404;28;20033;-66
2022/07/29 11:34:23;;;;;;;3.03;1.83;;;27.30;52.10;;;;;;5010904;28;20030;-66
2022/07/29 11:37:16;;;;;;;3.78;1.85;;;27.30;51.70;;;;;;5009055;28;20061;-66
2022/07/29 11:39:47;;;;;;;3.25;2.00;;;27.30;52.30;;;;;;5009284;28;20080;-66
2022/07/29 11:42:25;;;;;;;3.30;1.90;;;27.30;52.10;;;;;;5001070;28;20026;-66
2022/07/29 11:45:05;;;;;;;5.53;2.28;;;27.40;52.20;;;;;;5011045;28;20077;-66
2022/07/29 11:47:31;;;;;;;3.78;2.10;;;27.40;52.30;;;;;;5004743;28;20022;-66
2022/07/29 11:49:58;;;;;;;5.03;2.25;;;27.40;52.40;;;;;;5013583;28;20044;-67
2022/07/29 11:52:37;;;;;;;3.83;2.30;;;27.40;52.80;;;;;;5013158;28;20377;-66
2022/07/29 11:55:06;;;;;;;4.90;2.85;;;27.50;52.90;;;;;;5014045;28;20026;-66
2022/07/29 11:57:33;;;;;;;4.72;2.10;;;27.50;52.60;;;;;;5013906;28;20384;-65
2022/07/29 11:59:58;;;;;;;3.10;2.13;;;27.50;53.00;;;;;;4996870;28;20022;-66
2022/07/29 12:02:24;;;;;;;4.28;2.15;;;27.50;53.00;;;;;;5013553;28;20032;-66
2022/07/29 12:04:50;;;;;;;3.10;2.20;;;27.50;53.20;;;;;;5014649;28;20054;-66
2022/07/29 12:07:16;;;;;;;4.15;2.30;;;27.60;53.50;;;;;;5011646;28;20033;-66
2022/07/29 12:09:52;;;;;;;7.95;2.72;;;27.70;53.30;;;;;;5011263;28;20034;-67
2022/07/29 12:12:17;;;;;;;4.30;2.30;;;27.60;53.30;;;;;;5012924;28;20079;-66
2022/07/29 12:14:46;;;;;;;5.43;2.70;;;27.70;53.70;;;;;;5014308;28;20084;-69
2022/07/29 12:17:32;;;;;;;4.25;2.22;;;27.80;54.60;;;;;;5012876;28;20289;-66
2022/07/29 12:20:02;;;;;;;5.30;2.80;;;27.80;54.20;;;;;;5014435;28;20101;-67
2022/07/29 12:22:33;;;;;;;3.88;2.53;;;27.80;54.00;;;;;;5012943;28;20026;-67
2022/07/29 12:25:04;;;;;;;3.80;2.33;;;27.90;54.30;;;;;;5014104;28;20043;-67
2022/07/29 12:27:31;;;;;;;7.53;2.90;;;27.90;54.80;;;;;;5012693;28;20041;-68
2022/07/29 12:29:57;;;;;;;3.85;2.67;;;28.00;54.70;;;;;;5014334;28;20046;-67
2022/07/29 12:32:23;;;;;;;4.43;2.30;;;28.10;55.20;;;;;;5013618;28;20018;-67
2022/07/29 12:34:50;;;;;;;3.65;2.70;;;28.10;55.00;;;;;;5013782;28;20048;-68
2022/07/29 12:37:16;;;;;;;4.32;2.67;;;28.20;54.40;;;;;;5012183;28;20018;-67
2022/07/29 12:39:42;;;;;;;4.47;2.55;;;28.30;53.90;;;;;;5004852;28;20084;-66
2022/07/29 12:42:15;;;;;;;3.67;2.33;;;28.40;54.10;;;;;;5001236;28;20026;-67
2022/07/29 12:44:49;;;;;;;4.55;2.35;;;28.40;53.70;;;;;;5000691;28;20092;-67
2022/07/29 12:47:16;;;;;;;4.47;2.55;;;28.40;53.40;;;;;;5009890;28;20479;-67
2022/07/29 12:49:41;;;;;;;3.67;2.60;;;28.40;53.60;;;;;;5013186;28;20400;-67
2022/07/29 12:52:23;;;;;;;4.70;2.38;;;28.30;53.70;;;;;;5012115;28;20029;-67
2022/07/29 12:54:49;;;;;;;3.88;2.25;;;28.20;53.50;;;;;;5012725;28;20121;-67
2022/07/29 12:57:14;;;;;;;2.97;2.13;;;28.20;53.00;;;;;;5010970;28;20118;-67
2022/07/29 12:59:41;;;;;;;6.22;2.70;;;28.20;52.90;;;;;;5004715;28;20045;-66
2022/07/29 13:02:06;;;;;;;4.22;2.30;;;28.20;52.80;;;;;;5001900;28;20429;-68
2022/07/29 13:04:36;;;;;;;4.82;2.80;;;28.30;53.30;;;;;;5004549;28;20064;-71
2022/07/29 13:07:07;;;;;;;5.25;2.38;;;28.40;53.60;;;;;;5011943;28;20034;-68
2022/07/29 13:09:42;;;;;;;3.20;2.60;;;28.50;53.70;;;;;;5012218;28;20038;-69